sensor_id;sensor_type;location;lat;lon;timestamp;P1;durP1;ratioP1;P2;durP2;ratioP2
14306;SDS011;7237;49.500;11.400;2023-10-08T00:02:03;4.95;;;3.08;;
14306;SDS011;7237;49.500;11.400;2023-10-08T00:04:31;3.42;;;2.30;;
14306;SDS011;7237;49.500;11.400;2023-10-08T00:07:02;5.10;;;2.17;;
14306;SDS011;7237;49.500;11.400;2023-10-08T00:09:32;3.53;;;2.22;;
14306;SDS011;7237;49.500;11.400;2023-10-08T00:12:02;6.43;;;2.90;;
14306;SDS011;7237;49.500;11.400;2023-10-08T00:14:30;4.50;;;2.65;;
14306;SDS011;7237;49.500;11.400;2023-10-08T00:16:57;5.55;;;2.53;;
14306;SDS011;7237;49.500;11.400;2023-10-08T00:19:25;3.38;;;2.40;;
14306;SDS011;7237;49.500;11.400;2023-10-08T00:21:59;5.05;;;2.45;;
14306;SDS011;7237;49.500;11.400;2023-10-08T00:24:31;5.82;;;2.17;;
14306;SDS011;7237;49.500;11.400;2023-10-08T00:26:58;3.10;;;2.28;;
14306;SDS011;7237;49.500;11.400;2023-10-08T00:29:25;4.40;;;2.58;;
14306;SDS011;7237;49.500;11.400;2023-10-08T00:31:54;3.47;;;2.20;;
14306;SDS011;7237;49.500;11.400;2023-10-08T00:34:22;3.35;;;2.55;;
14306;SDS011;7237;49.500;11.400;2023-10-08T00:36:50;5.40;;;2.58;;
14306;SDS011;7237;49.500;11.400;2023-10-08T00:39:17;5.65;;;2.45;;
14306;SDS011;7237;49.500;11.400;2023-10-08T00:41:49;3.35;;;2.30;;
14306;SDS011;7237;49.500;11.400;2023-10-08T00:44:16;3.45;;;2.22;;
14306;SDS011;7237;49.500;11.400;2023-10-08T00:46:48;4.30;;;2.42;;
14306;SDS011;7237;49.500;11.400;2023-10-08T00:49:17;5.40;;;3.13;;
14306;SDS011;7237;49.500;11.400;2023-10-08T00:52:04;4.68;;;2.95;;
14306;SDS011;7237;49.500;11.400;2023-10-08T00:54:51;4.50;;;2.42;;
14306;SDS011;7237;49.500;11.400;2023-10-08T00:57:31;4.33;;;2.53;;
14306;SDS011;7237;49.500;11.400;2023-10-08T01:00:01;4.67;;;3.00;;
14306;SDS011;7237;49.500;11.400;2023-10-08T01:02:31;4.67;;;2.50;;
14306;SDS011;7237;49.500;11.400;2023-10-08T01:05:12;3.27;;;2.33;;
14306;SDS011;7237;49.500;11.400;2023-10-08T01:07:41;4.37;;;2.80;;
14306;SDS011;7237;49.500;11.400;2023-10-08T01:10:10;5.72;;;2.95;;
14306;SDS011;7237;49.500;11.400;2023-10-08T01:12:44;5.77;;;2.33;;
14306;SDS011;7237;49.500;11.400;2023-10-08T01:15:20;5.77;;;2.80;;
14306;SDS011;7237;49.500;11.400;2023-10-08T01:17:53;3.23;;;2.37;;
14306;SDS011;7237;49.500;11.400;2023-10-08T01:20:27;4.63;;;2.13;;
14306;SDS011;7237;49.500;11.400;2023-10-08T01:23:03;6.47;;;2.33;;
14306;SDS011;7237;49.500;11.400;2023-10-08T01:25:34;4.75;;;3.20;;
14306;SDS011;7237;49.500;11.400;2023-10-08T01:28:02;4.57;;;2.50;;
14306;SDS011;7237;49.500;11.400;2023-10-08T01:30:34;6.97;;;3.10;;
14306;SDS011;7237;49.500;11.400;2023-10-08T01:33:06;3.08;;;2.70;;
14306;SDS011;7237;49.500;11.400;2023-10-08T01:35:36;4.37;;;3.10;;
14306;SDS011;7237;49.500;11.400;2023-10-08T01:38:05;5.47;;;2.90;;
14306;SDS011;7237;49.500;11.400;2023-10-08T01:40:34;4.53;;;2.60;;
14306;SDS011;7237;49.500;11.400;2023-10-08T01:43:01;4.10;;;2.47;;
14306;SDS011;7237;49.500;11.400;2023-10-08T01:45:29;6.40;;;2.57;;
14306;SDS011;7237;49.500;11.400;2023-10-08T01:47:57;4.13;;;2.60;;
14306;SDS011;7237;49.500;11.400;2023-10-08T01:50:24;3.97;;;2.50;;
14306;SDS011;7237;49.500;11.400;2023-10-08T01:52:51;6.13;;;2.33;;
14306;SDS011;7237;49.500;11.400;2023-10-08T01:55:19;3.97;;;2.53;;
14306;SDS011;7237;49.500;11.400;2023-10-08T01:57:48;3.90;;;2.20;;
14306;SDS011;7237;49.500;11.400;2023-10-08T02:00:16;3.70;;;2.27;;
14306;SDS011;7237;49.500;11.400;2023-10-08T02:02:44;4.07;;;2.25;;
14306;SDS011;7237;49.500;11.400;2023-10-08T02:05:11;4.10;;;2.43;;
14306;SDS011;7237;49.500;11.400;2023-10-08T02:07:40;3.60;;;2.40;;
14306;SDS011;7237;49.500;11.400;2023-10-08T02:10:09;3.38;;;2.10;;
14306;SDS011;7237;49.500;11.400;2023-10-08T02:12:38;4.97;;;2.58;;
14306;SDS011;7237;49.500;11.400;2023-10-08T02:15:06;5.78;;;2.60;;
14306;SDS011;7237;49.500;11.400;2023-10-08T02:17:33;3.30;;;2.30;;
14306;SDS011;7237;49.500;11.400;2023-10-08T02:20:00;6.05;;;2.60;;
14306;SDS011;7237;49.500;11.400;2023-10-08T02:22:30;3.22;;;2.85;;
14306;SDS011;7237;49.500;11.400;2023-10-08T02:24:58;5.78;;;2.92;;
14306;SDS011;7237;49.500;11.400;2023-10-08T02:27:26;5.05;;;2.80;;
14306;SDS011;7237;49.500;11.400;2023-10-08T02:29:54;6.90;;;3.17;;
14306;SDS011;7237;49.500;11.400;2023-10-08T02:32:22;4.47;;;2.92;;
14306;SDS011;7237;49.500;11.400;2023-10-08T02:34:49;5.70;;;2.40;;
14306;SDS011;7237;49.500;11.400;2023-10-08T02:37:16;4.97;;;2.07;;
14306;SDS011;7237;49.500;11.400;2023-10-08T02:39:44;3.73;;;2.27;;
14306;SDS011;7237;49.500;11.400;2023-10-08T02:42:11;3.42;;;2.58;;
14306;SDS011;7237;49.500;11.400;2023-10-08T02:44:39;3.28;;;2.40;;
14306;SDS011;7237;49.500;11.400;2023-10-08T02:47:08;5.60;;;3.10;;
14306;SDS011;7237;49.500;11.400;2023-10-08T02:49:37;3.97;;;2.43;;
14306;SDS011;7237;49.500;11.400;2023-10-08T02:52:06;3.63;;;2.58;;
14306;SDS011;7237;49.500;11.400;2023-10-08T02:54:33;3.00;;;2.10;;
14306;SDS011;7237;49.500;11.400;2023-10-08T02:57:03;4.47;;;2.27;;
14306;SDS011;7237;49.500;11.400;2023-10-08T02:59:36;4.30;;;2.70;;
14306;SDS011;7237;49.500;11.400;2023-10-08T03:02:07;4.23;;;2.80;;
14306;SDS011;7237;49.500;11.400;2023-10-08T03:04:40;3.83;;;2.90;;
14306;SDS011;7237;49.500;11.400;2023-10-08T03:07:08;4.20;;;2.57;;
14306;SDS011;7237;49.500;11.400;2023-10-08T03:09:46;6.20;;;2.50;;
14306;SDS011;7237;49.500;11.400;2023-10-08T03:12:15;5.67;;;2.80;;
14306;SDS011;7237;49.500;11.400;2023-10-08T03:14:42;4.00;;;2.83;;
14306;SDS011;7237;49.500;11.400;2023-10-08T03:17:27;5.30;;;2.93;;
14306;SDS011;7237;49.500;11.400;2023-10-08T03:19:55;4.33;;;2.50;;
14306;SDS011;7237;49.500;11.400;2023-10-08T03:22:26;3.97;;;2.57;;
14306;SDS011;7237;49.500;11.400;2023-10-08T03:24:59;5.67;;;2.80;;
14306;SDS011;7237;49.500;11.400;2023-10-08T03:27:40;6.73;;;2.90;;
14306;SDS011;7237;49.500;11.400;2023-10-08T03:30:08;6.03;;;3.07;;
14306;SDS011;7237;49.500;11.400;2023-10-08T03:32:40;6.03;;;2.30;;
14306;SDS011;7237;49.500;11.400;2023-10-08T03:35:09;4.90;;;2.63;;
14306;SDS011;7237;49.500;11.400;2023-10-08T03:37:37;6.77;;;2.70;;
14306;SDS011;7237;49.500;11.400;2023-10-08T03:40:07;6.83;;;2.53;;
14306;SDS011;7237;49.500;11.400;2023-10-08T03:42:50;6.20;;;2.87;;
14306;SDS011;7237;49.500;11.400;2023-10-08T03:45:20;6.23;;;2.27;;
14306;SDS011;7237;49.500;11.400;2023-10-08T03:48:03;5.30;;;2.63;;
14306;SDS011;7237;49.500;11.400;2023-10-08T03:50:35;4.77;;;2.60;;
14306;SDS011;7237;49.500;11.400;2023-10-08T03:53:08;7.77;;;3.10;;
14306;SDS011;7237;49.500;11.400;2023-10-08T03:55:37;4.47;;;2.90;;
14306;SDS011;7237;49.500;11.400;2023-10-08T03:58:05;4.10;;;2.60;;
14306;SDS011;7237;49.500;11.400;2023-10-08T04:00:36;4.07;;;2.37;;
14306;SDS011;7237;49.500;11.400;2023-10-08T04:03:08;4.40;;;2.50;;
14306;SDS011;7237;49.500;11.400;2023-10-08T04:05:37;7.60;;;2.67;;
14306;SDS011;7237;49.500;11.400;2023-10-08T04:08:24;4.63;;;2.33;;
14306;SDS011;7237;49.500;11.400;2023-10-08T04:11:05;4.43;;;2.30;;
14306;SDS011;7237;49.500;11.400;2023-10-08T04:13:37;4.17;;;2.50;;
14306;SDS011;7237;49.500;11.400;2023-10-08T04:16:13;4.23;;;2.57;;
14306;SDS011;7237;49.500;11.400;2023-10-08T04:18:45;4.27;;;2.30;;
14306;SDS011;7237;49.500;11.400;2023-10-08T04:21:15;6.70;;;2.60;;
14306;SDS011;7237;49.500;11.400;2023-10-08T04:23:45;5.97;;;2.77;;
14306;SDS011;7237;49.500;11.400;2023-10-08T04:26:16;3.33;;;2.37;;
14306;SDS011;7237;49.500;11.400;2023-10-08T04:28:48;4.03;;;2.40;;
14306;SDS011;7237;49.500;11.400;2023-10-08T04:31:19;8.33;;;2.57;;
14306;SDS011;7237;49.500;11.400;2023-10-08T04:33:51;2.80;;;2.27;;
14306;SDS011;7237;49.500;11.400;2023-10-08T04:36:19;4.67;;;2.33;;
14306;SDS011;7237;49.500;11.400;2023-10-08T04:38:46;3.97;;;2.20;;
14306;SDS011;7237;49.500;11.400;2023-10-08T04:41:18;4.83;;;2.57;;
14306;SDS011;7237;49.500;11.400;2023-10-08T04:43:48;4.30;;;2.73;;
14306;SDS011;7237;49.500;11.400;2023-10-08T04:46:15;5.67;;;2.70;;
14306;SDS011;7237;49.500;11.400;2023-10-08T04:49:00;3.00;;;2.10;;
14306;SDS011;7237;49.500;11.400;2023-10-08T04:51:34;6.57;;;2.55;;
14306;SDS011;7237;49.500;11.400;2023-10-08T04:54:08;9.07;;;2.67;;
14306;SDS011;7237;49.500;11.400;2023-10-08T04:56:41;6.22;;;3.28;;
14306;SDS011;7237;49.500;11.400;2023-10-08T04:59:08;6.10;;;3.65;;
14306;SDS011;7237;49.500;11.400;2023-10-08T05:01:36;6.25;;;3.05;;
14306;SDS011;7237;49.500;11.400;2023-10-08T05:04:13;4.88;;;3.17;;
14306;SDS011;7237;49.500;11.400;2023-10-08T05:06:52;5.20;;;3.20;;
14306;SDS011;7237;49.500;11.400;2023-10-08T05:09:55;7.07;;;3.08;;
14306;SDS011;7237;49.500;11.400;2023-10-08T05:12:37;5.85;;;2.88;;
14306;SDS011;7237;49.500;11.400;2023-10-08T05:15:10;3.60;;;2.17;;
14306;SDS011;7237;49.500;11.400;2023-10-08T05:17:58;7.05;;;2.15;;
14306;SDS011;7237;49.500;11.400;2023-10-08T05:20:38;5.55;;;2.47;;
14306;SDS011;7237;49.500;11.400;2023-10-08T05:23:24;4.82;;;2.17;;
14306;SDS011;7237;49.500;11.400;2023-10-08T05:26:34;2.97;;;2.00;;
14306;SDS011;7237;49.500;11.400;2023-10-08T05:29:07;7.78;;;2.45;;
14306;SDS011;7237;49.500;11.400;2023-10-08T05:31:48;9.10;;;2.97;;
14306;SDS011;7237;49.500;11.400;2023-10-08T05:34:35;4.40;;;2.88;;
14306;SDS011;7237;49.500;11.400;2023-10-08T05:37:07;4.00;;;2.70;;
14306;SDS011;7237;49.500;11.400;2023-10-08T05:39:57;5.50;;;3.13;;
14306;SDS011;7237;49.500;11.400;2023-10-08T05:42:38;7.50;;;3.58;;
14306;SDS011;7237;49.500;11.400;2023-10-08T05:45:12;9.30;;;2.92;;
14306;SDS011;7237;49.500;11.400;2023-10-08T05:47:54;6.50;;;2.80;;
14306;SDS011;7237;49.500;11.400;2023-10-08T05:50:33;4.90;;;2.40;;
14306;SDS011;7237;49.500;11.400;2023-10-08T05:53:08;5.45;;;2.50;;
14306;SDS011;7237;49.500;11.400;2023-10-08T05:55:54;4.45;;;2.22;;
14306;SDS011;7237;49.500;11.400;2023-10-08T05:58:42;5.55;;;2.45;;
14306;SDS011;7237;49.500;11.400;2023-10-08T06:01:25;4.50;;;2.60;;
14306;SDS011;7237;49.500;11.400;2023-10-08T06:04:05;4.78;;;3.25;;
14306;SDS011;7237;49.500;11.400;2023-10-08T06:06:46;4.97;;;2.85;;
14306;SDS011;7237;49.500;11.400;2023-10-08T06:09:22;6.55;;;2.90;;
14306;SDS011;7237;49.500;11.400;2023-10-08T06:12:00;5.88;;;2.90;;
14306;SDS011;7237;49.500;11.400;2023-10-08T06:14:38;5.17;;;3.00;;
14306;SDS011;7237;49.500;11.400;2023-10-08T06:17:32;8.03;;;3.00;;
14306;SDS011;7237;49.500;11.400;2023-10-08T06:20:22;4.67;;;2.70;;
14306;SDS011;7237;49.500;11.400;2023-10-08T06:22:52;4.60;;;2.80;;
14306;SDS011;7237;49.500;11.400;2023-10-08T06:25:32;5.07;;;3.10;;
14306;SDS011;7237;49.500;11.400;2023-10-08T06:28:09;8.63;;;3.00;;
14306;SDS011;7237;49.500;11.400;2023-10-08T06:30:38;6.20;;;3.40;;
14306;SDS011;7237;49.500;11.400;2023-10-08T06:33:06;4.90;;;2.97;;
14306;SDS011;7237;49.500;11.400;2023-10-08T06:35:33;10.47;;;3.30;;
14306;SDS011;7237;49.500;11.400;2023-10-08T06:38:01;7.27;;;3.10;;
14306;SDS011;7237;49.500;11.400;2023-10-08T06:40:32;4.95;;;3.05;;
14306;SDS011;7237;49.500;11.400;2023-10-08T06:43:09;6.90;;;3.35;;
14306;SDS011;7237;49.500;11.400;2023-10-08T06:45:48;5.13;;;3.13;;
14306;SDS011;7237;49.500;11.400;2023-10-08T06:48:17;6.78;;;2.80;;
14306;SDS011;7237;49.500;11.400;2023-10-08T06:50:45;7.50;;;3.38;;
14306;SDS011;7237;49.500;11.400;2023-10-08T06:53:13;5.00;;;2.75;;
14306;SDS011;7237;49.500;11.400;2023-10-08T06:55:40;6.88;;;3.60;;
14306;SDS011;7237;49.500;11.400;2023-10-08T06:58:08;6.20;;;3.00;;
14306;SDS011;7237;49.500;11.400;2023-10-08T07:00:36;4.80;;;2.88;;
14306;SDS011;7237;49.500;11.400;2023-10-08T07:03:09;7.65;;;3.25;;
14306;SDS011;7237;49.500;11.400;2023-10-08T07:05:40;6.32;;;3.42;;
14306;SDS011;7237;49.500;11.400;2023-10-08T07:08:09;5.50;;;2.78;;
14306;SDS011;7237;49.500;11.400;2023-10-08T07:10:38;5.38;;;2.80;;
14306;SDS011;7237;49.500;11.400;2023-10-08T07:13:07;5.13;;;2.95;;
14306;SDS011;7237;49.500;11.400;2023-10-08T07:15:34;5.65;;;3.10;;
14306;SDS011;7237;49.500;11.400;2023-10-08T07:18:04;5.30;;;2.88;;
14306;SDS011;7237;49.500;11.400;2023-10-08T07:20:39;5.43;;;2.97;;
14306;SDS011;7237;49.500;11.400;2023-10-08T07:23:07;5.05;;;3.28;;
14306;SDS011;7237;49.500;11.400;2023-10-08T07:25:43;5.35;;;3.00;;
14306;SDS011;7237;49.500;11.400;2023-10-08T07:28:13;6.22;;;3.15;;
14306;SDS011;7237;49.500;11.400;2023-10-08T07:30:44;7.53;;;3.88;;
14306;SDS011;7237;49.500;11.400;2023-10-08T07:33:13;8.50;;;3.15;;
14306;SDS011;7237;49.500;11.400;2023-10-08T07:35:45;3.92;;;2.65;;
14306;SDS011;7237;49.500;11.400;2023-10-08T07:38:20;8.88;;;2.60;;
14306;SDS011;7237;49.500;11.400;2023-10-08T07:40:48;4.03;;;2.83;;
14306;SDS011;7237;49.500;11.400;2023-10-08T07:43:15;9.18;;;3.47;;
14306;SDS011;7237;49.500;11.400;2023-10-08T07:45:45;5.32;;;2.83;;
14306;SDS011;7237;49.500;11.400;2023-10-08T07:48:12;7.72;;;3.20;;
14306;SDS011;7237;49.500;11.400;2023-10-08T07:50:41;4.75;;;3.20;;
14306;SDS011;7237;49.500;11.400;2023-10-08T07:53:10;8.23;;;2.83;;
14306;SDS011;7237;49.500;11.400;2023-10-08T07:55:43;7.00;;;3.20;;
14306;SDS011;7237;49.500;11.400;2023-10-08T07:58:10;5.85;;;2.90;;
14306;SDS011;7237;49.500;11.400;2023-10-08T08:00:39;7.45;;;3.40;;
14306;SDS011;7237;49.500;11.400;2023-10-08T08:03:06;7.45;;;3.45;;
14306;SDS011;7237;49.500;11.400;2023-10-08T08:05:34;5.50;;;2.92;;
14306;SDS011;7237;49.500;11.400;2023-10-08T08:08:02;5.75;;;3.10;;
14306;SDS011;7237;49.500;11.400;2023-10-08T08:10:33;6.13;;;2.80;;
14306;SDS011;7237;49.500;11.400;2023-10-08T08:13:02;9.38;;;3.55;;
14306;SDS011;7237;49.500;11.400;2023-10-08T08:15:31;5.25;;;3.20;;
14306;SDS011;7237;49.500;11.400;2023-10-08T08:17:58;6.22;;;3.25;;
14306;SDS011;7237;49.500;11.400;2023-10-08T08:20:25;3.92;;;2.97;;
14306;SDS011;7237;49.500;11.400;2023-10-08T08:23:04;6.63;;;2.97;;
14306;SDS011;7237;49.500;11.400;2023-10-08T08:25:36;5.15;;;3.55;;
14306;SDS011;7237;49.500;11.400;2023-10-08T08:28:10;7.45;;;3.45;;
14306;SDS011;7237;49.500;11.400;2023-10-08T08:30:42;4.53;;;3.10;;
14306;SDS011;7237;49.500;11.400;2023-10-08T08:33:12;10.02;;;3.17;;
14306;SDS011;7237;49.500;11.400;2023-10-08T08:35:42;6.90;;;2.83;;
14306;SDS011;7237;49.500;11.400;2023-10-08T08:38:10;5.13;;;3.17;;
14306;SDS011;7237;49.500;11.400;2023-10-08T08:40:38;7.07;;;4.53;;
14306;SDS011;7237;49.500;11.400;2023-10-08T08:43:06;9.38;;;4.00;;
14306;SDS011;7237;49.500;11.400;2023-10-08T08:45:36;7.60;;;3.22;;
14306;SDS011;7237;49.500;11.400;2023-10-08T08:48:05;4.88;;;3.17;;
14306;SDS011;7237;49.500;11.400;2023-10-08T08:50:33;5.72;;;3.20;;
14306;SDS011;7237;49.500;11.400;2023-10-08T08:53:02;5.32;;;2.97;;
14306;SDS011;7237;49.500;11.400;2023-10-08T08:55:30;4.53;;;2.90;;
14306;SDS011;7237;49.500;11.400;2023-10-08T08:57:59;11.23;;;4.03;;
14306;SDS011;7237;49.500;11.400;2023-10-08T09:00:28;5.85;;;2.90;;
14306;SDS011;7237;49.500;11.400;2023-10-08T09:02:56;5.75;;;3.20;;
14306;SDS011;7237;49.500;11.400;2023-10-08T09:05:23;4.20;;;2.97;;
14306;SDS011;7237;49.500;11.400;2023-10-08T09:07:51;7.10;;;3.30;;
14306;SDS011;7237;49.500;11.400;2023-10-08T09:10:19;7.82;;;3.45;;
14306;SDS011;7237;49.500;11.400;2023-10-08T09:12:51;9.48;;;3.42;;
14306;SDS011;7237;49.500;11.400;2023-10-08T09:15:19;10.10;;;3.97;;
14306;SDS011;7237;49.500;11.400;2023-10-08T09:17:47;6.15;;;2.75;;
14306;SDS011;7237;49.500;11.400;2023-10-08T09:20:16;4.40;;;3.08;;
14306;SDS011;7237;49.500;11.400;2023-10-08T09:22:45;5.35;;;3.25;;
14306;SDS011;7237;49.500;11.400;2023-10-08T09:25:15;5.93;;;3.30;;
14306;SDS011;7237;49.500;11.400;2023-10-08T09:27:50;7.43;;;3.10;;
14306;SDS011;7237;49.500;11.400;2023-10-08T09:30:19;6.90;;;3.85;;
14306;SDS011;7237;49.500;11.400;2023-10-08T09:32:47;4.35;;;3.15;;
14306;SDS011;7237;49.500;11.400;2023-10-08T09:35:14;4.13;;;2.85;;
14306;SDS011;7237;49.500;11.400;2023-10-08T09:37:42;6.30;;;2.90;;
14306;SDS011;7237;49.500;11.400;2023-10-08T09:40:10;5.25;;;2.90;;
14306;SDS011;7237;49.500;11.400;2023-10-08T09:42:37;5.57;;;2.83;;
14306;SDS011;7237;49.500;11.400;2023-10-08T09:45:04;10.13;;;3.30;;
14306;SDS011;7237;49.500;11.400;2023-10-08T09:47:35;4.57;;;3.25;;
14306;SDS011;7237;49.500;11.400;2023-10-08T09:50:04;5.35;;;3.30;;
14306;SDS011;7237;49.500;11.400;2023-10-08T09:52:36;5.75;;;3.47;;
14306;SDS011;7237;49.500;11.400;2023-10-08T09:55:07;4.80;;;3.50;;
14306;SDS011;7237;49.500;11.400;2023-10-08T09:57:35;3.90;;;2.88;;
14306;SDS011;7237;49.500;11.400;2023-10-08T10:00:03;5.57;;;3.72;;
14306;SDS011;7237;49.500;11.400;2023-10-08T10:02:32;7.35;;;3.30;;
14306;SDS011;7237;49.500;11.400;2023-10-08T10:05:01;9.15;;;3.40;;
14306;SDS011;7237;49.500;11.400;2023-10-08T10:07:28;5.80;;;3.15;;
14306;SDS011;7237;49.500;11.400;2023-10-08T10:09:56;5.85;;;3.40;;
14306;SDS011;7237;49.500;11.400;2023-10-08T10:12:25;7.25;;;2.95;;
14306;SDS011;7237;49.500;11.400;2023-10-08T10:14:52;4.78;;;3.05;;
14306;SDS011;7237;49.500;11.400;2023-10-08T10:17:21;7.15;;;3.33;;
14306;SDS011;7237;49.500;11.400;2023-10-08T10:19:50;4.53;;;2.70;;
14306;SDS011;7237;49.500;11.400;2023-10-08T10:22:28;5.10;;;3.05;;
14306;SDS011;7237;49.500;11.400;2023-10-08T10:24:56;6.93;;;3.28;;
14306;SDS011;7237;49.500;11.400;2023-10-08T10:27:25;7.82;;;3.13;;
14306;SDS011;7237;49.500;11.400;2023-10-08T10:29:53;5.93;;;3.28;;
14306;SDS011;7237;49.500;11.400;2023-10-08T10:32:29;8.60;;;3.40;;
14306;SDS011;7237;49.500;11.400;2023-10-08T10:34:56;10.48;;;3.65;;
14306;SDS011;7237;49.500;11.400;2023-10-08T10:37:24;8.48;;;4.00;;
14306;SDS011;7237;49.500;11.400;2023-10-08T10:39:59;7.88;;;3.80;;
14306;SDS011;7237;49.500;11.400;2023-10-08T10:42:26;6.70;;;4.07;;
14306;SDS011;7237;49.500;11.400;2023-10-08T10:44:54;7.93;;;3.75;;
14306;SDS011;7237;49.500;11.400;2023-10-08T10:47:23;6.70;;;3.33;;
14306;SDS011;7237;49.500;11.400;2023-10-08T10:49:53;5.55;;;3.17;;
14306;SDS011;7237;49.500;11.400;2023-10-08T10:52:40;4.65;;;3.15;;
14306;SDS011;7237;49.500;11.400;2023-10-08T10:55:18;8.38;;;3.55;;
14306;SDS011;7237;49.500;11.400;2023-10-08T10:57:56;9.25;;;4.10;;
14306;SDS011;7237;49.500;11.400;2023-10-08T11:00:29;5.60;;;2.85;;
14306;SDS011;7237;49.500;11.400;2023-10-08T11:03:22;6.68;;;3.30;;
14306;SDS011;7237;49.500;11.400;2023-10-08T11:05:50;7.78;;;3.50;;
14306;SDS011;7237;49.500;11.400;2023-10-08T11:08:19;7.28;;;3.35;;
14306;SDS011;7237;49.500;11.400;2023-10-08T11:10:49;5.82;;;3.22;;
14306;SDS011;7237;49.500;11.400;2023-10-08T11:13:20;5.13;;;3.00;;
14306;SDS011;7237;49.500;11.400;2023-10-08T11:15:49;10.80;;;3.70;;
14306;SDS011;7237;49.500;11.400;2023-10-08T11:18:17;6.20;;;3.10;;
14306;SDS011;7237;49.500;11.400;2023-10-08T11:20:46;6.20;;;3.30;;
14306;SDS011;7237;49.500;11.400;2023-10-08T11:23:31;8.15;;;4.07;;
14306;SDS011;7237;49.500;11.400;2023-10-08T11:26:01;7.57;;;3.83;;
14306;SDS011;7237;49.500;11.400;2023-10-08T11:28:28;7.18;;;3.60;;
14306;SDS011;7237;49.500;11.400;2023-10-08T11:30:59;5.57;;;3.42;;
14306;SDS011;7237;49.500;11.400;2023-10-08T11:33:33;3.95;;;2.95;;
14306;SDS011;7237;49.500;11.400;2023-10-08T11:36:00;5.70;;;3.78;;
14306;SDS011;7237;49.500;11.400;2023-10-08T11:38:37;7.93;;;3.22;;
14306;SDS011;7237;49.500;11.400;2023-10-08T11:41:12;5.47;;;3.10;;
14306;SDS011;7237;49.500;11.400;2023-10-08T11:43:46;7.35;;;3.47;;
14306;SDS011;7237;49.500;11.400;2023-10-08T11:46:13;7.35;;;3.60;;
14306;SDS011;7237;49.500;11.400;2023-10-08T11:48:43;5.93;;;3.42;;
14306;SDS011;7237;49.500;11.400;2023-10-08T11:51:12;7.82;;;3.17;;
14306;SDS011;7237;49.500;11.400;2023-10-08T11:53:42;6.75;;;2.92;;
14306;SDS011;7237;49.500;11.400;2023-10-08T11:56:09;4.30;;;3.08;;
14306;SDS011;7237;49.500;11.400;2023-10-08T11:58:39;11.07;;;3.80;;
14306;SDS011;7237;49.500;11.400;2023-10-08T12:01:09;6.70;;;3.55;;
14306;SDS011;7237;49.500;11.400;2023-10-08T12:03:40;10.98;;;4.13;;
14306;SDS011;7237;49.500;11.400;2023-10-08T12:06:08;7.05;;;3.60;;
14306;SDS011;7237;49.500;11.400;2023-10-08T12:08:40;5.75;;;3.65;;
14306;SDS011;7237;49.500;11.400;2023-10-08T12:11:07;8.00;;;3.47;;
14306;SDS011;7237;49.500;11.400;2023-10-08T12:13:36;6.95;;;3.47;;
14306;SDS011;7237;49.500;11.400;2023-10-08T12:16:05;7.13;;;3.40;;
14306;SDS011;7237;49.500;11.400;2023-10-08T12:18:37;6.85;;;3.03;;
14306;SDS011;7237;49.500;11.400;2023-10-08T12:21:05;7.15;;;3.58;;
14306;SDS011;7237;49.500;11.400;2023-10-08T12:23:35;8.63;;;3.58;;
14306;SDS011;7237;49.500;11.400;2023-10-08T12:26:02;5.85;;;3.63;;
14306;SDS011;7237;49.500;11.400;2023-10-08T12:28:33;7.47;;;3.72;;
14306;SDS011;7237;49.500;11.400;2023-10-08T12:31:01;5.30;;;3.35;;
14306;SDS011;7237;49.500;11.400;2023-10-08T12:33:30;10.77;;;3.75;;
14306;SDS011;7237;49.500;11.400;2023-10-08T12:35:58;13.77;;;3.83;;
14306;SDS011;7237;49.500;11.400;2023-10-08T12:38:35;4.95;;;3.42;;
14306;SDS011;7237;49.500;11.400;2023-10-08T12:41:02;7.63;;;4.18;;
14306;SDS011;7237;49.500;11.400;2023-10-08T12:43:36;6.93;;;3.75;;
14306;SDS011;7237;49.500;11.400;2023-10-08T12:46:07;8.23;;;3.58;;
14306;SDS011;7237;49.500;11.400;2023-10-08T12:48:42;7.47;;;3.58;;
14306;SDS011;7237;49.500;11.400;2023-10-08T12:51:12;7.88;;;3.95;;
14306;SDS011;7237;49.500;11.400;2023-10-08T12:53:39;8.40;;;4.00;;
14306;SDS011;7237;49.500;11.400;2023-10-08T12:56:15;6.28;;;3.42;;
14306;SDS011;7237;49.500;11.400;2023-10-08T12:58:45;12.60;;;4.18;;
14306;SDS011;7237;49.500;11.400;2023-10-08T13:01:13;11.60;;;3.83;;
14306;SDS011;7237;49.500;11.400;2023-10-08T13:03:43;6.50;;;3.58;;
14306;SDS011;7237;49.500;11.400;2023-10-08T13:06:13;6.13;;;3.33;;
14306;SDS011;7237;49.500;11.400;2023-10-08T13:08:47;5.63;;;3.95;;
14306;SDS011;7237;49.500;11.400;2023-10-08T13:11:14;7.65;;;4.22;;
14306;SDS011;7237;49.500;11.400;2023-10-08T13:13:46;7.80;;;3.75;;
14306;SDS011;7237;49.500;11.400;2023-10-08T13:16:14;9.27;;;4.10;;
14306;SDS011;7237;49.500;11.400;2023-10-08T13:18:41;9.30;;;4.28;;
14306;SDS011;7237;49.500;11.400;2023-10-08T13:21:09;6.15;;;3.65;;
14306;SDS011;7237;49.500;11.400;2023-10-08T13:23:37;7.50;;;3.40;;
14306;SDS011;7237;49.500;11.400;2023-10-08T13:26:04;9.52;;;4.25;;
14306;SDS011;7237;49.500;11.400;2023-10-08T13:28:32;7.20;;;3.72;;
14306;SDS011;7237;49.500;11.400;2023-10-08T13:30:59;8.27;;;4.00;;
14306;SDS011;7237;49.500;11.400;2023-10-08T13:33:34;8.43;;;4.35;;
14306;SDS011;7237;49.500;11.400;2023-10-08T13:36:04;7.93;;;4.10;;
14306;SDS011;7237;49.500;11.400;2023-10-08T13:38:34;6.93;;;2.88;;
14306;SDS011;7237;49.500;11.400;2023-10-08T13:41:01;4.20;;;2.83;;
14306;SDS011;7237;49.500;11.400;2023-10-08T13:43:29;3.10;;;2.30;;
14306;SDS011;7237;49.500;11.400;2023-10-08T13:46:00;4.18;;;2.63;;
14306;SDS011;7237;49.500;11.400;2023-10-08T13:48:29;5.45;;;2.38;;
14306;SDS011;7237;49.500;11.400;2023-10-08T13:50:57;5.18;;;2.17;;
14306;SDS011;7237;49.500;11.400;2023-10-08T13:53:25;6.25;;;2.58;;
14306;SDS011;7237;49.500;11.400;2023-10-08T13:55:56;3.65;;;2.40;;
14306;SDS011;7237;49.500;11.400;2023-10-08T13:58:23;6.10;;;2.10;;
14306;SDS011;7237;49.500;11.400;2023-10-08T14:00:50;4.55;;;2.70;;
14306;SDS011;7237;49.500;11.400;2023-10-08T14:03:18;4.97;;;2.40;;
14306;SDS011;7237;49.500;11.400;2023-10-08T14:05:46;2.53;;;2.15;;
14306;SDS011;7237;49.500;11.400;2023-10-08T14:08:16;2.47;;;1.98;;
14306;SDS011;7237;49.500;11.400;2023-10-08T14:10:43;3.92;;;2.40;;
14306;SDS011;7237;49.500;11.400;2023-10-08T14:13:12;3.55;;;2.25;;
14306;SDS011;7237;49.500;11.400;2023-10-08T14:15:39;5.13;;;2.35;;
14306;SDS011;7237;49.500;11.400;2023-10-08T14:18:11;2.78;;;2.00;;
14306;SDS011;7237;49.500;11.400;2023-10-08T14:20:41;2.75;;;2.00;;
14306;SDS011;7237;49.500;11.400;2023-10-08T14:23:11;4.15;;;1.90;;
14306;SDS011;7237;49.500;11.400;2023-10-08T14:25:41;2.75;;;1.95;;
14306;SDS011;7237;49.500;11.400;2023-10-08T14:28:10;1.98;;;1.75;;
14306;SDS011;7237;49.500;11.400;2023-10-08T14:30:48;6.55;;;2.13;;
14306;SDS011;7237;49.500;11.400;2023-10-08T14:33:20;3.40;;;2.08;;
14306;SDS011;7237;49.500;11.400;2023-10-08T14:35:52;6.15;;;2.38;;
14306;SDS011;7237;49.500;11.400;2023-10-08T14:38:36;5.35;;;2.17;;
14306;SDS011;7237;49.500;11.400;2023-10-08T14:41:21;4.05;;;2.00;;
14306;SDS011;7237;49.500;11.400;2023-10-08T14:44:06;2.00;;;1.80;;
14306;SDS011;7237;49.500;11.400;2023-10-08T14:46:34;2.35;;;1.77;;
14306;SDS011;7237;49.500;11.400;2023-10-08T14:49:02;6.20;;;1.98;;
14306;SDS011;7237;49.500;11.400;2023-10-08T14:51:34;2.83;;;1.75;;
14306;SDS011;7237;49.500;11.400;2023-10-08T14:54:01;1.90;;;1.70;;
14306;SDS011;7237;49.500;11.400;2023-10-08T14:56:28;4.45;;;2.00;;
14306;SDS011;7237;49.500;11.400;2023-10-08T14:58:57;2.25;;;1.85;;
14306;SDS011;7237;49.500;11.400;2023-10-08T15:01:25;5.22;;;1.73;;
14306;SDS011;7237;49.500;11.400;2023-10-08T15:03:54;2.50;;;1.83;;
14306;SDS011;7237;49.500;11.400;2023-10-08T15:06:22;2.55;;;2.05;;
14306;SDS011;7237;49.500;11.400;2023-10-08T15:08:50;4.07;;;1.73;;
14306;SDS011;7237;49.500;11.400;2023-10-08T15:11:17;4.15;;;1.70;;
14306;SDS011;7237;49.500;11.400;2023-10-08T15:13:44;3.13;;;1.77;;